createdAt,value
2014-07-26T06:03:19.027Z,25.6
2014-07-26T06:03:36.637Z,25.6
2014-07-26T06:03:54.873Z,25.6
2014-07-26T06:04:12.483Z,25.6
2014-07-26T06:04:28.842Z,25.6
2014-07-26T06:04:46.453Z,25.5
2014-07-26T06:05:04.688Z,25.5
2014-07-26T06:05:21.938Z,25.5
2014-07-26T06:05:40.313Z,25.4
2014-07-26T06:05:57.924Z,25.4
2014-07-26T06:06:16.174Z,25.4
2014-07-26T06:06:33.158Z,25.4
2014-07-26T06:06:51.535Z,25.4
2014-07-26T06:07:09.770Z,25.3
2014-07-26T06:07:28.004Z,25.3
2014-07-26T06:07:44.504Z,25.3
2014-07-26T06:08:02.116Z,25.3
2014-07-26T06:08:18.459Z,25.3
2014-07-26T06:08:34.194Z,25.3
2014-07-26T06:08:51.805Z,25.3
2014-07-26T06:09:10.039Z,25.3
2014-07-26T06:09:27.164Z,25.3
2014-07-26T06:09:45.414Z,25.3
2014-07-26T06:10:03.651Z,25.3
2014-07-26T06:10:22.026Z,25.3
2014-07-26T06:10:40.401Z,25.3
2014-07-26T06:10:58.653Z,25.3
2014-07-26T06:11:16.887Z,25.3
2014-07-26T06:11:35.278Z,25.3
2014-07-26T06:11:51.622Z,25.3
2014-07-26T06:12:09.373Z,25.3
2014-07-26T06:12:27.123Z,25.3
2014-07-26T06:12:45.498Z,25.3
2014-07-26T06:13:03.235Z,25.3
2014-07-26T06:13:20.985Z,25.3
2014-07-26T06:13:37.969Z,25.3
2014-07-26T06:13:54.954Z,25.3
2014-07-26T06:14:12.565Z,25.3
2014-07-26T06:14:30.190Z,25.3
2014-07-26T06:14:48.424Z,25.3
2014-07-26T06:15:06.801Z,25.4
2014-07-26T06:15:23.786Z,25.4
2014-07-26T06:15:40.770Z,25.4
2014-07-26T06:15:57.880Z,25.4
2014-07-26T06:16:14.882Z,25.4
2014-07-26T06:16:32.491Z,25.4
2014-07-26T06:16:49.475Z,25.4
2014-07-26T06:17:06.462Z,25.4
2014-07-26T06:17:23.446Z,25.4
2014-07-26T06:17:41.196Z,25.4
2014-07-26T06:17:58.805Z,25.4
2014-07-26T06:18:16.557Z,25.4
2014-07-26T06:18:32.917Z,25.4
2014-07-26T06:18:49.901Z,25.4
2014-07-26T06:19:06.872Z,25.4
2014-07-26T06:19:24.497Z,25.4
2014-07-26T06:19:41.481Z,25.4
2014-07-26T06:19:59.716Z,25.4
2014-07-26T06:20:17.327Z,25.4
2014-07-26T06:20:34.327Z,25.4
2014-07-26T06:20:50.671Z,25.4
2014-07-26T06:21:07.673Z,25.4
2014-07-26T06:21:24.032Z,25.4
2014-07-26T06:21:42.267Z,25.4
2014-07-26T06:22:00.017Z,25.4
2014-07-26T06:22:18.253Z,25.4
2014-07-26T06:22:36.644Z,25.4
2014-07-26T06:22:54.878Z,25.4
2014-07-26T06:23:13.129Z,25.4
2014-07-26T06:23:31.363Z,25.5
2014-07-26T06:23:49.598Z,25.5
2014-07-26T06:24:07.207Z,25.5
2014-07-26T06:24:24.193Z,25.5
2014-07-26T06:24:41.803Z,25.5
2014-07-26T06:25:00.053Z,25.5
2014-07-26T06:25:17.664Z,25.5
2014-07-26T06:25:35.899Z,25.5
2014-07-26T06:25:53.664Z,25.5
2014-07-26T06:26:10.008Z,25.5
2014-07-26T06:26:27.776Z,25.5
2014-07-26T06:26:45.385Z,25.5
2014-07-26T06:27:01.744Z,25.5
2014-07-26T06:27:19.496Z,25.5
2014-07-26T06:27:36.481Z,25.5
2014-07-26T06:27:54.231Z,25.5
2014-07-26T06:28:11.840Z,25.5
2014-07-26T06:28:29.452Z,25.5
2014-07-26T06:28:47.202Z,25.5
2014-07-26T06:29:03.562Z,25.5
2014-07-26T06:29:21.798Z,25.5
2014-07-26T06:29:38.783Z,25.5
2014-07-26T06:29:55.142Z,25.5
2014-07-26T06:30:12.126Z,25.5
2014-07-26T06:30:29.737Z,25.5
2014-07-26T06:30:46.721Z,25.5
2014-07-26T06:31:03.705Z,25.5
2014-07-26T06:31:20.690Z,25.5
2014-07-26T06:31:38.926Z,25.5
2014-07-26T06:31:56.551Z,25.5
2014-07-26T06:32:14.161Z,25.5
2014-07-26T06:32:32.413Z,25.5
2014-07-26T06:32:50.647Z,25.5
2014-07-26T06:33:06.381Z,25.5
2014-07-26T06:33:24.743Z,25.5
2014-07-26T06:33:41.743Z,25.5
2014-07-26T06:33:58.727Z,25.5
2014-07-26T06:34:16.961Z,25.5
2014-07-26T06:34:35.198Z,25.5
2014-07-26T06:34:53.198Z,25.5
2014-07-26T06:35:09.542Z,25.5
2014-07-26T06:35:27.778Z,25.5
2014-07-26T06:35:46.028Z,25.5
2014-07-26T06:36:03.012Z,25.5
2014-07-26T06:36:21.387Z,25.5
2014-07-26T06:36:39.139Z,25.5
2014-07-26T18:08:41.625Z,26.9
2014-07-26T18:08:59.203Z,27.3
2014-07-26T18:09:17.408Z,27.5
2014-07-26T18:09:34.361Z,27.7
2014-07-26T18:09:51.314Z,27.8
2014-07-26T18:10:08.424Z,28
2014-07-26T18:10:26.019Z,28.1
2014-07-26T18:10:43.113Z,28.1
2014-07-26T18:11:00.707Z,28.2
2014-07-26T18:11:18.285Z,28.2
2014-07-26T18:11:36.505Z,28.3
2014-07-26T18:11:54.083Z,28.3
2014-07-26T18:12:11.677Z,28.4
2014-07-26T18:12:29.258Z,28.4
2014-07-26T18:12:46.836Z,28.4
2014-07-26T18:13:04.430Z,28.3
2014-07-26T18:13:21.398Z,28.3
2014-07-26T18:13:39.618Z,28.3
2014-07-26T18:13:57.212Z,28.3
2014-07-26T18:14:14.806Z,28.3
2014-07-26T18:14:32.387Z,28.3
2014-07-26T18:14:48.730Z,28.2
2014-07-26T18:15:06.309Z,28.2
2014-07-26T18:15:23.902Z,28.2
2014-07-26T18:15:42.123Z,28.2
2014-07-26T18:15:59.076Z,28.2
2014-07-26T18:16:16.045Z,28.2
2014-07-26T18:16:33.625Z,28.2
2014-07-26T18:16:51.859Z,28.1
2014-07-26T18:17:10.063Z,28.2
2014-07-26T18:17:28.283Z,28.1
2014-07-26T18:17:46.502Z,28.1
2014-07-26T18:18:04.080Z,28.1
2014-07-26T18:18:21.690Z,28
2014-07-26T18:18:39.285Z,28
2014-07-26T18:18:57.488Z,28
2014-07-26T18:19:14.457Z,27.9
2014-07-26T18:19:32.052Z,27.9
2014-07-26T18:19:49.646Z,27.9
2014-07-26T18:20:06.739Z,27.9
2014-07-26T18:20:23.833Z,27.9
2014-07-26T18:20:42.366Z,27.8
2014-07-26T18:20:59.460Z,27.8
2014-07-26T18:21:17.038Z,27.9
2014-07-26T18:21:34.634Z,27.8
2014-07-26T18:21:52.212Z,27.9
2014-07-26T18:22:09.806Z,27.8
2014-07-26T18:22:28.027Z,27.8
2014-07-26T18:22:44.355Z,27.8
2014-07-26T18:23:02.574Z,27.8
2014-07-26T18:23:20.917Z,27.8
2014-07-26T18:23:37.888Z,27.8
2014-07-26T18:23:54.841Z,27.8
2014-07-26T18:24:12.435Z,27.7
2014-07-26T18:24:30.656Z,27.7
2014-07-26T18:24:47.609Z,27.7
2014-07-26T18:25:04.578Z,27.7
2014-07-26T18:25:22.796Z,27.7
2014-07-26T18:25:40.376Z,27.7
2014-07-26T18:25:57.345Z,27.7
2014-07-26T18:26:14.923Z,27.7
2014-07-26T18:26:31.894Z,27.7
2014-07-26T18:26:49.488Z,27.7
2014-07-26T18:27:06.441Z,27.7
2014-07-26T18:27:23.410Z,27.7
2014-07-26T18:27:40.990Z,27.7
2014-07-26T18:27:58.584Z,27.6
2014-07-26T18:28:16.162Z,27.6
2014-07-26T18:28:32.492Z,27.6
2014-07-26T18:28:50.711Z,27.6
2014-07-26T18:29:07.679Z,27.6
2014-07-26T18:29:24.775Z,27.6
2014-07-26T18:29:41.744Z,27.6
2014-07-26T18:29:59.338Z,27.6
2014-07-26T18:30:16.306Z,27.6
2014-07-26T18:30:33.277Z,27.6
2014-07-26T18:30:50.980Z,27.6
2014-07-26T18:31:08.090Z,27.6
2014-07-26T18:31:25.044Z,27.5
2014-07-26T18:31:41.372Z,27.5
2014-07-26T18:31:59.591Z,27.5
2014-07-26T18:32:16.559Z,27.5
2014-07-26T18:32:33.514Z,27.5
2014-07-26T18:32:51.233Z,27.5
2014-07-26T18:33:08.827Z,27.5
2014-07-26T18:33:27.048Z,27.5
2014-07-26T18:33:45.266Z,27.5
2014-07-26T18:34:02.220Z,27.5
2014-07-26T18:34:19.829Z,27.5
2014-07-26T18:34:38.175Z,27.5
2014-07-26T18:34:55.268Z,27.5
2014-07-26T18:35:12.862Z,27.5
2014-07-26T18:35:31.083Z,27.5
2014-07-26T18:35:48.677Z,27.4
2014-07-26T18:36:05.645Z,27.4
2014-07-26T18:36:23.364Z,27.4
2014-07-26T18:36:40.319Z,27.4
2014-07-26T18:36:58.538Z,27.4
2014-07-26T18:37:16.116Z,27.4
2014-07-26T18:37:33.711Z,27.4
2014-07-26T18:37:50.664Z,27.4
2014-07-26T18:38:08.258Z,27.4
2014-07-26T18:38:25.855Z,27.4
2014-07-26T18:38:44.073Z,27.4
2014-07-26T18:39:01.667Z,27.4
2014-07-26T18:39:19.401Z,27.4
2014-07-26T18:39:37.621Z,27.4
2014-07-26T18:39:55.840Z,27.4
2014-07-26T18:40:14.043Z,27.4
2014-07-26T18:40:31.639Z,27.4
2014-07-26T18:40:49.233Z,27.4
2014-07-26T18:41:06.826Z,27.4
2014-07-26T18:41:23.920Z,27.4
2014-07-26T18:41:41.501Z,27.4
2014-07-26T18:41:59.720Z,27.4
2014-07-26T18:42:17.939Z,27.4
2014-07-26T18:42:35.534Z,27.4
2014-07-26T18:42:53.128Z,27.4
2014-07-26T18:43:10.081Z,27.4
2014-07-26T18:43:28.597Z,27.4
2014-07-26T18:43:46.177Z,27.4
2014-07-26T18:44:04.396Z,27.4
2014-07-26T18:44:52.725Z,27.4
2014-07-26T18:45:10.319Z,27.4
2014-07-26T18:45:27.272Z,27.4
2014-07-26T18:45:44.868Z,27.4
2014-07-26T18:46:02.586Z,27.4
2014-07-26T18:46:20.805Z,27.4
2014-07-26T18:46:38.401Z,27.4
2014-07-26T18:46:55.354Z,27.4
2014-07-26T18:47:13.573Z,27.4
2014-07-26T18:47:31.791Z,27.4
2014-07-26T18:47:50.012Z,27.3
2014-07-26T18:48:07.747Z,27.3
2014-07-26T18:48:25.965Z,27.3
2014-07-26T18:48:42.921Z,27.3
2014-07-26T18:49:01.140Z,27.3
2014-07-26T18:49:17.468Z,27.3
2014-07-26T18:49:34.453Z,27.3
2014-07-26T18:49:52.032Z,27.3
2014-07-26T18:50:09.626Z,27.3
2014-07-26T18:50:27.844Z,27.3
2014-07-26T18:50:45.440Z,27.3
2014-07-26T18:51:02.393Z,27.3
2014-07-26T18:51:19.362Z,27.3
2014-07-26T18:51:37.081Z,27.3
2014-07-26T18:51:55.301Z,27.3
2014-07-26T18:52:12.895Z,27.3
2014-07-26T18:52:29.864Z,27.3
2014-07-26T18:52:47.460Z,27.3
2014-07-26T18:53:05.678Z,27.3
2014-07-26T18:53:22.147Z,27.3
2014-07-26T18:53:39.741Z,27.3
2014-07-26T18:53:56.071Z,27.3
2014-07-26T18:54:13.040Z,27.3
2014-07-26T18:54:30.618Z,27.3
2014-07-26T18:54:48.214Z,27.3
2014-07-26T18:55:06.432Z,27.3
2014-07-26T18:55:24.026Z,27.3
2014-07-26T18:55:41.620Z,27.3
2014-07-26T18:55:59.841Z,27.3
2014-07-26T18:56:18.059Z,27.3
2014-07-26T18:56:35.013Z,27.3
2014-07-26T18:56:53.233Z,27.3
2014-07-26T18:57:11.452Z,27.3
2014-07-26T18:57:29.030Z,27.3
2014-07-26T18:57:46.280Z,27.3
2014-07-26T18:58:03.876Z,27.3
2014-07-26T18:58:21.454Z,27.3
2014-07-26T18:58:39.048Z,27.3
2014-07-26T18:58:56.628Z,27.3
2014-07-26T18:59:12.972Z,27.3
2014-07-26T18:59:29.925Z,27.3
2014-07-26T18:59:47.534Z,27.3
2014-07-26T19:00:05.113Z,27.2
2014-07-26T19:00:23.332Z,27.3
2014-07-26T19:00:40.926Z,27.2
2014-07-26T19:00:58.523Z,27.3
2014-07-26T19:01:15.476Z,27.3
2014-07-26T19:01:33.069Z,27.3
2014-07-26T19:01:51.273Z,27.3
2014-07-26T19:02:08.868Z,27.3
2014-07-26T19:02:26.462Z,27.3
2014-07-26T19:02:44.681Z,27.3
2014-07-26T19:03:01.652Z,27.3
2014-07-26T19:03:20.183Z,27.3
2014-07-26T19:03:38.292Z,27.3
2014-07-26T19:03:54.136Z,27.3
2014-07-26T19:04:11.091Z,27.3
2014-07-26T19:04:28.060Z,27.3
2014-07-26T19:04:45.638Z,27.3
2014-07-26T19:05:02.609Z,27.3
2014-07-26T19:05:20.202Z,27.3
2014-07-26T19:05:37.796Z,27.3
2014-07-26T19:05:55.374Z,27.3
2014-07-26T19:06:13.111Z,27.3
2014-07-26T19:06:30.689Z,27.3
2014-07-26T19:06:48.283Z,27.3
2014-07-26T19:07:05.238Z,27.3
2014-07-26T19:07:53.566Z,27.3
2014-07-26T19:08:11.146Z,27.3
2014-07-26T19:08:28.115Z,27.3
2014-07-26T19:08:45.693Z,27.3
2014-07-26T19:09:03.287Z,27.3
2014-07-26T19:09:19.772Z,27.3
2014-07-26T19:09:37.350Z,27.3
2014-07-26T19:09:54.944Z,27.3
2014-07-26T19:10:12.541Z,27.3
2014-07-26T19:10:30.119Z,27.3
2014-07-26T19:11:09.525Z,27.3
2014-07-26T19:11:27.105Z,27.3
2014-07-26T19:11:45.324Z,27.3
2014-07-26T19:12:02.277Z,27.3
2014-07-26T19:12:17.981Z,27.3
2014-07-26T19:12:35.575Z,27.3
2014-07-26T19:12:53.934Z,27.3
2014-07-26T19:13:11.512Z,27.3
2014-07-26T19:13:28.484Z,27.3
2014-07-26T19:13:44.812Z,27.3
2014-07-26T19:14:01.781Z,27.3
2014-07-26T19:14:19.377Z,27.3
2014-07-26T19:14:36.955Z,27.3
2014-07-26T19:14:55.174Z,27.2
2014-07-26T19:15:12.142Z,27.2
2014-07-26T19:15:30.363Z,27.3
2014-07-26T19:15:48.582Z,27.3
2014-07-26T19:16:06.801Z,27.2
2014-07-26T19:16:25.020Z,27.2
2014-07-26T19:16:42.598Z,27.2
2014-07-26T19:17:00.223Z,27.2
2014-07-26T19:17:17.177Z,27.2
2014-07-26T19:17:33.523Z,27.2
2014-07-26T19:17:51.101Z,27.2
2014-07-26T19:18:08.695Z,27.2
2014-07-26T19:18:26.915Z,27.2
2014-07-26T19:18:43.884Z,27.2
2014-07-26T19:19:01.149Z,27.2
2014-07-26T19:19:19.368Z,27.2
2014-07-26T19:19:36.948Z,27.2
2014-07-26T19:19:55.183Z,27.2
2014-07-26T19:20:12.761Z,27.2
2014-07-26T19:20:30.482Z,27.2
2014-07-26T19:20:48.717Z,27.2
2014-07-26T19:21:06.936Z,27.2
2014-07-26T19:21:23.889Z,27.2
2014-07-26T19:21:42.108Z,27.2
2014-07-26T19:21:59.077Z,27.2
2014-07-26T19:22:15.405Z,27.2
2014-07-26T19:22:32.985Z,27.2
2014-07-26T19:22:49.954Z,27.2
2014-07-26T19:23:08.173Z,27.2
2014-07-26T19:23:25.144Z,27.2
2014-07-26T19:23:42.097Z,27.2
2014-07-26T19:24:00.331Z,27.2
2014-07-26T19:24:17.284Z,27.2
2014-07-26T19:24:34.880Z,27.2
2014-07-26T19:24:53.099Z,27.2
2014-07-26T19:25:10.677Z,27.2
2014-07-26T19:25:28.898Z,27.2
2014-07-26T19:25:45.851Z,27.2
2014-07-26T19:26:02.945Z,27.2
2014-07-26T19:26:19.898Z,27.2
2014-07-26T19:26:38.118Z,27.3
2014-07-26T19:26:55.087Z,27.2
2014-07-26T19:27:12.056Z,27.3
2014-07-26T19:27:30.277Z,27.3
2014-07-26T19:27:48.480Z,27.2
2014-07-26T19:28:06.074Z,27.2
2014-07-26T19:28:24.292Z,27.2
2014-07-26T19:28:42.513Z,27.2
2014-07-26T19:29:00.732Z,27.2
2014-07-26T19:29:18.310Z,27.2
2014-07-26T19:29:35.296Z,27.2
2014-07-26T19:29:52.890Z,27.2
2014-07-26T19:30:10.484Z,27.2
2014-07-26T19:30:28.080Z,27.2
2014-07-26T19:30:45.658Z,27.2
2014-07-26T19:31:03.251Z,27.2
2014-07-26T19:31:20.267Z,27.2
2014-07-26T19:31:38.472Z,27.2
2014-07-26T19:31:56.066Z,27.2
2014-07-26T19:32:13.050Z,27.2
2014-07-26T19:32:30.755Z,27.3
2014-07-26T19:32:48.974Z,27.3
2014-07-26T19:33:07.193Z,27.2
2014-07-26T19:33:24.162Z,27.2
2014-07-26T19:33:41.741Z,27.2
2014-07-26T19:33:59.350Z,27.2
2014-07-26T19:34:17.663Z,27.2
2014-07-26T19:34:35.883Z,27.2
2014-07-26T19:34:52.852Z,27.2
2014-07-26T19:35:11.071Z,27.2
2014-07-26T19:35:29.292Z,27.2
2014-07-26T19:35:46.885Z,27.2
2014-07-26T19:36:26.292Z,27.2
2014-07-26T19:36:43.872Z,27.2
2014-07-26T19:37:00.825Z,27.2
2014-07-26T19:37:19.044Z,27.2
2014-07-26T19:37:37.327Z,27.2
2014-07-26T19:37:54.905Z,27.2
2014-07-26T19:38:13.124Z,27.2
2014-07-26T19:38:30.762Z,27.2
2014-07-26T19:38:46.465Z,27.2
2014-07-26T19:39:03.418Z,27.2
2014-07-26T19:39:21.012Z,27.2
2014-07-26T19:39:39.291Z,27.2
2014-07-26T19:39:57.010Z,27.2
2014-07-26T19:40:15.229Z,27.2
2014-07-26T19:40:32.853Z,27.2
2014-07-26T19:40:49.822Z,27.2
2014-07-26T19:41:08.040Z,27.2
2014-07-26T19:41:25.931Z,27.2
2014-07-26T19:41:44.194Z,27.2
2014-07-26T19:42:02.413Z,27.2
2014-07-26T19:42:19.991Z,27.2
2014-07-26T19:42:38.241Z,27.2
2014-07-26T19:42:55.835Z,27.2
2014-07-26T19:43:12.788Z,27.3
2014-07-26T19:43:31.007Z,27.2
2014-07-26T19:43:48.619Z,27.2
2014-07-26T19:44:05.588Z,27.2
2014-07-26T19:44:23.181Z,27.2
2014-07-26T19:44:41.417Z,27.3
2014-07-26T19:44:59.761Z,27.2
2014-07-26T19:45:17.980Z,27.2
2014-07-26T19:45:35.558Z,27.2
2014-07-26T19:45:53.793Z,27.2
2014-07-26T19:46:12.325Z,27.2
2014-07-26T19:46:29.903Z,27.2
2014-07-26T19:46:47.515Z,27.2
2014-07-26T19:47:04.593Z,27.2
2014-07-26T19:47:22.780Z,27.2
2014-07-26T19:47:39.749Z,27.2
2014-07-26T19:47:56.714Z,27.2
2014-07-26T19:48:14.323Z,27.2
2014-07-26T19:48:31.917Z,27.2
2014-07-26T19:48:49.519Z,27.2
2014-07-26T19:49:07.738Z,27.2
2014-07-26T19:49:24.691Z,27.2
2014-07-26T19:49:42.910Z,27.2
2014-07-26T19:49:59.261Z,27.2
2014-07-26T19:50:16.855Z,27.2
2014-07-26T19:51:04.050Z,27.2
2014-07-26T19:51:22.268Z,27.2
2014-07-26T19:51:39.237Z,27.2
2014-07-26T19:51:57.464Z,27.2
2014-07-26T19:52:15.042Z,27.2
2014-07-26T19:52:32.636Z,27.2
2014-07-26T19:52:50.854Z,27.2
2014-07-26T19:53:08.483Z,27.2
2014-07-26T19:53:25.437Z,27.2
2014-07-26T19:53:43.030Z,27.2
2014-07-26T19:54:01.253Z,27.2
2014-07-26T19:54:18.847Z,27.2
2014-07-26T19:54:36.550Z,27.2
2014-07-26T19:54:54.784Z,27.2
2014-07-26T19:55:11.741Z,27.2
2014-07-26T19:55:28.710Z,27.2
2014-07-26T19:55:46.929Z,27.2
2014-07-26T19:56:05.136Z,27.2
2014-07-26T19:56:22.105Z,27.2
2014-07-26T19:56:40.324Z,27.2
2014-07-26T19:56:58.542Z,27.2
2014-07-26T19:57:15.515Z,27.2
2014-07-26T19:57:33.734Z,27.2
2014-07-26T19:57:51.328Z,27.2
2014-07-26T19:58:09.549Z,27.2
2014-07-26T19:58:27.127Z,27.2
2014-07-26T19:58:44.096Z,27.2
2014-07-26T19:59:02.315Z,27.2
2014-07-26T19:59:19.912Z,27.2
2014-07-26T19:59:37.505Z,27.2
2014-07-26T19:59:55.724Z,27.2
2014-07-26T20:00:43.415Z,27.2
2014-07-26T20:01:01.633Z,27.2
2014-07-26T20:01:18.604Z,27.2
2014-07-26T20:01:36.198Z,27.2
2014-07-26T20:01:54.417Z,27.2
2014-07-26T20:02:12.013Z,27.2
2014-07-26T20:02:30.232Z,27.2
2014-07-26T20:02:47.185Z,27.2
2014-07-26T20:03:05.420Z,27.2
2014-07-26T20:03:23.015Z,27.2
2014-07-26T20:03:40.609Z,27.2
2014-07-26T20:03:58.812Z,27.2
2014-07-26T20:04:15.783Z,27.2
2014-07-26T20:04:33.392Z,27.2
2014-07-26T20:04:50.986Z,27.2
2014-07-26T20:05:07.939Z,27.2
2014-07-26T20:05:24.911Z,27.2
2014-07-26T20:05:43.130Z,27.2
2014-07-26T20:06:01.583Z,27.2
2014-07-26T20:06:19.773Z,27.2
2014-07-26T20:06:37.992Z,27.2
2014-07-26T20:06:56.211Z,27.2
2014-07-26T20:07:13.180Z,27.2
2014-07-26T20:07:31.463Z,27.2
2014-07-26T20:07:49.697Z,27.2
2014-07-26T20:08:06.650Z,27.2
2014-07-26T20:08:23.605Z,27.2
2014-07-26T20:08:40.558Z,27.2
2014-07-26T20:08:58.792Z,27.2
2014-07-26T20:09:14.495Z,27.2
2014-07-26T20:09:32.108Z,27.2
2014-07-26T20:09:49.686Z,27.2
2014-07-26T20:10:08.029Z,27.2
2014-07-26T20:10:26.266Z,27.2
2014-07-26T20:10:43.844Z,27.2
2014-07-26T20:11:02.063Z,27.2
2014-07-26T20:11:20.281Z,27.2
2014-07-26T20:11:38.002Z,27.2
2014-07-26T20:11:55.596Z,27.2
2014-07-26T20:12:12.565Z,27.2
2014-07-26T20:12:30.144Z,27.2
2014-07-26T20:12:48.378Z,27.2
2014-07-26T20:13:05.331Z,27.2
2014-07-26T20:13:23.550Z,27.2
2014-07-26T20:13:41.911Z,27.2
2014-07-26T20:14:00.115Z,27.2
2014-07-26T20:14:17.708Z,27.2
2014-07-26T20:14:35.929Z,27.2
2014-07-26T20:14:54.148Z,27.2
2014-07-26T20:15:12.367Z,27.2
2014-07-26T20:15:29.337Z,27.2
2014-07-26T20:15:46.931Z,27.2
2014-07-26T20:16:05.150Z,27.2
2014-07-26T20:16:23.494Z,27.2
2014-07-26T20:16:41.089Z,27.2
2014-07-26T20:16:59.433Z,27.2
2014-07-26T20:17:17.652Z,27.2
2014-07-26T20:17:35.388Z,27.2
2014-07-26T20:17:53.591Z,27.2
2014-07-26T20:18:10.560Z,27.2
2014-07-26T20:18:28.781Z,27.2
2014-07-26T20:18:46.375Z,27.2
2014-07-26T20:19:03.953Z,27.2
2014-07-26T20:19:22.171Z,27.2
2014-07-26T20:19:40.392Z,27.2
2014-07-26T20:19:57.986Z,27.2
2014-07-26T20:20:15.580Z,27.2
2014-07-26T20:20:32.550Z,27.2
2014-07-26T20:20:49.504Z,27.2
2014-07-26T20:21:07.722Z,27.2
2014-07-26T20:21:24.691Z,27.2
2014-07-26T20:21:42.287Z,27.2
2014-07-26T20:21:59.865Z,27.2
2014-07-26T20:22:18.084Z,27.2
2014-07-26T20:22:35.679Z,27.2
2014-07-26T20:22:53.898Z,27.2
2014-07-26T20:23:12.117Z,27.2
2014-07-26T20:23:30.336Z,27.2
2014-07-26T20:23:48.556Z,27.2
2014-07-26T20:24:06.775Z,27.2
2014-07-26T20:24:24.385Z,27.2
2014-07-26T20:24:41.965Z,27.2
2014-07-26T20:24:58.933Z,27.2
2014-07-26T20:25:16.527Z,27.2
2014-07-26T20:25:34.246Z,27.2
2014-07-26T20:25:51.841Z,27.2
2014-07-26T20:26:09.434Z,27.2
2014-07-26T20:26:27.028Z,27.2
2014-07-26T20:26:45.250Z,27.2
2014-07-26T20:27:02.828Z,27.2
2014-07-26T20:27:19.922Z,27.2
2014-07-26T20:27:38.141Z,27.2
2014-07-26T20:27:55.752Z,27.2
2014-07-26T20:28:13.330Z,27.2
2014-07-26T20:28:30.924Z,27.2
2014-07-26T20:28:47.879Z,27.2
2014-07-26T20:29:04.207Z,27.2
2014-07-26T20:29:21.191Z,27.2
2014-07-26T20:29:38.785Z,27.2
2014-07-26T20:29:56.381Z,27.2
2014-07-26T20:30:13.959Z,27.2
2014-07-26T20:30:32.193Z,27.2
2014-07-26T20:30:49.789Z,27.2
2014-07-26T20:31:07.367Z,27.2
2014-07-26T20:31:24.961Z,27.2
2014-07-26T20:31:43.180Z,27.2
2014-07-26T20:32:00.243Z,27.2
2014-07-26T20:32:17.306Z,27.2
2014-07-26T20:32:34.900Z,27.1
2014-07-26T20:32:53.120Z,27.2
2014-07-26T20:33:10.714Z,27.2
2014-07-26T20:33:28.308Z,27.1
2014-07-26T20:33:45.886Z,27.2
2014-07-26T20:34:04.123Z,27.2
2014-07-26T20:34:21.717Z,27.1
2014-07-26T20:34:39.936Z,27.2
2014-07-26T20:34:58.140Z,27.1
2014-07-26T20:35:16.359Z,27.1
2014-07-26T20:35:34.577Z,27.2
2014-07-26T20:35:52.171Z,27.1
2014-07-26T20:36:09.767Z,27.2
2014-07-26T20:36:27.345Z,27.2
2014-07-26T20:36:44.939Z,27.2
2014-07-26T20:37:03.160Z,27.2
2014-07-26T20:37:20.128Z,27.2
2014-07-26T20:37:37.706Z,27.2
2014-07-26T20:37:55.925Z,27.2
2014-07-26T20:38:12.897Z,27.1
2014-07-26T20:38:29.866Z,27.2
2014-07-26T20:38:48.084Z,27.2
2014-07-26T20:39:05.665Z,27.2
2014-07-26T20:39:22.633Z,27.2
2014-07-26T20:39:39.602Z,27.2
2014-07-26T20:39:57.196Z,27.2
2014-07-26T20:40:14.775Z,27.1
2014-07-26T20:40:32.994Z,27.2
2014-07-26T20:40:50.587Z,27.1
2014-07-26T20:41:08.183Z,27.2
2014-07-26T20:41:26.386Z,27.2
2014-07-26T20:41:44.121Z,27.2
2014-07-26T20:42:01.699Z,27.2
2014-07-26T20:42:19.295Z,27.2
2014-07-26T20:42:37.513Z,27.2
2014-07-26T20:42:54.466Z,27.2
2014-07-26T20:43:12.688Z,27.2
2014-07-26T20:43:29.657Z,27.2
2014-07-26T20:43:48.001Z,27.2
2014-07-26T20:44:05.594Z,27.2
2014-07-26T20:44:23.830Z,27.2
2014-07-26T20:44:41.424Z,27.2
2014-07-26T20:44:59.783Z,27.2
2014-07-26T20:45:18.004Z,27.1
2014-07-26T20:45:35.582Z,27.1
2014-07-26T20:45:53.176Z,27.2
2014-07-26T20:46:11.691Z,27.1
2014-07-26T20:46:29.913Z,27.1
2014-07-26T20:46:47.507Z,27.1
2014-07-26T20:47:05.725Z,27.1
2014-07-26T20:47:22.821Z,27.1
2014-07-26T20:47:40.415Z,27.1
2014-07-26T20:47:58.634Z,27.1
2014-07-26T20:48:16.227Z,27.1
2014-07-26T20:48:34.448Z,27.2
2014-07-26T20:48:52.042Z,27.2
2014-07-26T20:49:09.620Z,27.2
2014-07-26T20:49:27.840Z,27.2
2014-07-26T20:49:44.809Z,27.1
2014-07-26T20:50:03.027Z,27.1
2014-07-26T20:50:19.355Z,27.1
2014-07-26T20:50:36.936Z,27.1
2014-07-26T20:50:53.904Z,27.1
2014-07-26T20:51:12.123Z,27.1
2014-07-26T20:51:29.094Z,27.2
2014-07-26T20:51:46.688Z,27.2
2014-07-26T20:52:04.266Z,27.2
2014-07-26T20:52:21.859Z,27.2
2014-07-26T20:52:40.080Z,27.2
2014-07-26T20:52:58.299Z,27.2
2014-07-26T20:53:15.893Z,27.1
2014-07-26T20:53:33.488Z,27.1
2014-07-26T20:53:50.457Z,27.2
2014-07-26T20:54:07.426Z,27.2
2014-07-26T20:54:25.147Z,27.1
2014-07-26T20:54:42.100Z,27.2
2014-07-26T20:54:59.694Z,27.1
2014-07-26T20:55:17.287Z,27.2
2014-07-26T20:55:35.508Z,27.2
2014-07-26T20:55:53.727Z,27.1
2014-07-26T20:56:11.321Z,27.1
2014-07-26T20:56:29.541Z,27.1
2014-07-26T20:56:47.135Z,27.1
2014-07-26T20:57:04.713Z,27.2
2014-07-26T20:57:22.307Z,27.1
2014-07-26T20:57:39.902Z,27.1
2014-07-26T20:57:56.230Z,27.1
2014-07-26T20:58:13.839Z,27.1
2014-07-26T20:58:32.060Z,27.1
2014-07-26T20:58:49.638Z,27.1
2014-07-26T20:59:07.232Z,27.1
2014-07-26T20:59:25.578Z,27.1
2014-07-26T20:59:43.843Z,27.1
2014-07-26T21:00:01.437Z,27.1
2014-07-26T21:00:19.156Z,27.1
2014-07-26T21:00:36.751Z,27.1
2014-07-26T21:00:54.330Z,27.2
2014-07-26T21:01:11.298Z,27.2
2014-07-26T21:01:29.503Z,27.2
2014-07-26T21:01:47.097Z,27.2
2014-07-26T21:02:05.300Z,27.1
2014-07-26T21:02:23.519Z,27.2
2014-07-26T21:02:41.115Z,27.2
2014-07-26T21:02:59.334Z,27.2
2014-07-26T21:03:17.552Z,27.2
2014-07-26T21:03:35.757Z,27.1
2014-07-26T21:03:53.492Z,27.1
2014-07-26T21:04:11.695Z,27.1
2014-07-26T21:04:29.291Z,27.1
2014-07-26T21:04:46.884Z,27.1
2014-07-26T21:05:05.400Z,27.1
2014-07-26T21:05:22.353Z,27.1
2014-07-26T21:05:40.574Z,27.1
2014-07-26T21:05:58.293Z,27.1
2014-07-26T21:06:16.636Z,27.1
2014-07-26T21:06:34.232Z,27.1
2014-07-26T21:06:52.451Z,27.1
2014-07-26T21:07:09.404Z,27.1
2014-07-26T21:07:26.373Z,27.1
2014-07-26T21:07:44.578Z,27.1
2014-07-26T21:08:02.312Z,27.1
2014-07-26T21:08:20.031Z,27.1
2014-07-26T21:08:36.986Z,27.1
2014-07-26T21:08:54.580Z,27.1
2014-07-26T21:09:12.158Z,27.1
2014-07-26T21:09:30.377Z,27.1
2014-07-26T21:09:47.348Z,27.1
2014-07-26T21:10:05.566Z,27.1
2014-07-26T21:10:23.285Z,27.1
2014-07-26T21:10:40.881Z,27.1
2014-07-26T21:10:58.475Z,27
2014-07-26T21:11:16.678Z,27
2014-07-26T21:11:34.287Z,27.1
2014-07-26T21:11:51.867Z,27.1
2014-07-26T21:12:10.070Z,27.1
2014-07-26T21:12:27.648Z,27
2014-07-26T21:12:45.260Z,27
2014-07-26T21:13:02.213Z,27
2014-07-26T21:13:20.416Z,27
2014-07-26T21:13:38.010Z,27
2014-07-26T21:13:55.590Z,27
2014-07-26T21:14:13.809Z,27
2014-07-26T21:14:31.402Z,27
2014-07-26T21:14:48.983Z,27
2014-07-26T21:15:07.217Z,27
2014-07-26T21:15:24.795Z,27
2014-07-26T21:15:43.014Z,27
2014-07-26T21:16:01.235Z,27
2014-07-26T21:16:19.578Z,27
2014-07-26T21:16:36.531Z,27
2014-07-26T21:16:54.752Z,27
2014-07-26T21:17:12.955Z,27
2014-07-26T21:17:29.924Z,27
2014-07-26T21:17:48.270Z,27
2014-07-26T21:18:06.489Z,27
2014-07-26T21:18:24.832Z,27
2014-07-26T21:18:42.410Z,27
2014-07-26T21:19:00.631Z,27
2014-07-26T21:19:17.584Z,27
2014-07-26T21:19:34.553Z,27
2014-07-26T21:19:51.523Z,27
2014-07-26T21:20:09.101Z,27
2014-07-26T21:20:27.304Z,27
2014-07-26T21:20:44.898Z,27
2014-07-26T21:21:02.495Z,27
2014-07-26T21:21:20.698Z,27
2014-07-26T21:21:38.291Z,27
2014-07-26T21:21:56.637Z,27
2014-07-26T21:22:14.840Z,27
2014-07-26T21:22:32.418Z,27
2014-07-26T21:22:49.997Z,27
2014-07-26T21:23:08.217Z,27
2014-07-26T21:23:25.936Z,27
2014-07-26T21:23:44.155Z,27
2014-07-26T21:24:01.735Z,27
2014-07-26T21:24:19.329Z,26.9
2014-07-26T21:24:36.922Z,27
2014-07-26T21:24:53.876Z,27
2014-07-26T21:25:12.081Z,27
2014-07-26T21:25:30.315Z,27
2014-07-26T21:25:47.893Z,27
2014-07-26T21:26:06.114Z,27
2014-07-26T21:26:23.708Z,27
2014-07-26T21:26:41.926Z,27
2014-07-26T21:27:00.130Z,27
2014-07-26T21:27:17.725Z,27
2014-07-26T21:27:35.303Z,27
2014-07-26T21:27:53.522Z,27
2014-07-26T21:28:11.118Z,27
2014-07-26T21:28:28.696Z,27
2014-07-26T21:28:46.290Z,27
2014-07-26T21:29:04.009Z,27
2014-07-26T21:29:21.588Z,27
2014-07-26T21:29:39.181Z,27
2014-07-26T21:29:56.760Z,27
2014-07-26T21:30:15.106Z,27
2014-07-26T21:30:32.075Z,27
2014-07-26T21:30:49.669Z,27
2014-07-26T21:31:07.872Z,27
2014-07-26T21:31:25.608Z,27
2014-07-26T21:31:42.561Z,27
2014-07-26T21:32:00.155Z,27
2014-07-26T21:32:18.501Z,27
2014-07-26T21:32:36.720Z,27
2014-07-26T21:32:54.923Z,27
2014-07-26T21:33:12.519Z,27
2014-07-26T21:33:30.722Z,27
2014-07-26T21:33:48.315Z,27